createdAt,value
2023-04-06T00:04:03.479Z,5.49
2023-04-06T00:09:05.584Z,5.47
2023-04-06T00:14:07.862Z,5.36
2023-04-06T00:19:09.847Z,5.28
2023-04-06T00:24:12.018Z,5.29
2023-04-06T00:29:13.930Z,5.27
2023-04-06T00:34:17.089Z,5.18
2023-04-06T00:39:20.961Z,5.12
2023-04-06T00:44:23.567Z,4.95
2023-04-06T00:49:25.596Z,4.97
2023-04-06T00:54:27.682Z,4.83
2023-04-06T00:59:30.033Z,4.85
2023-04-06T01:04:34.102Z,4.90
2023-04-06T01:09:37.067Z,4.96
2023-04-06T01:14:47.849Z,5.03
2023-04-06T01:19:52.316Z,5.06
2023-04-06T01:25:01.004Z,5.10
2023-04-06T01:30:21.824Z,5.13
2023-04-06T01:35:31.902Z,5.12
2023-04-06T01:40:48.139Z,5.07
2023-04-06T01:45:52.058Z,4.99
2023-04-06T01:50:56.990Z,4.85
2023-04-06T01:56:05.454Z,5.01
2023-04-06T02:01:14.852Z,5.02
2023-04-06T02:06:26.488Z,4.68
2023-04-06T02:11:28.683Z,4.50
2023-04-06T02:16:31.670Z,4.36
2023-04-06T02:21:33.944Z,4.22
2023-04-06T02:26:35.982Z,4.16
2023-04-06T02:31:37.952Z,4.13
2023-04-06T02:36:41.224Z,4.01
2023-04-06T02:41:43.317Z,3.87
2023-04-06T02:46:47.140Z,3.83
2023-04-06T02:51:49.133Z,3.81
2023-04-06T02:56:56.540Z,3.76
2023-04-06T03:02:05.458Z,3.70
2023-04-06T03:07:08.151Z,3.63
2023-04-06T03:12:13.566Z,3.58
2023-04-06T03:17:38.326Z,3.59
2023-04-06T03:22:45.426Z,3.60
2023-04-06T03:27:50.936Z,3.44
2023-04-06T03:32:54.993Z,3.29
2023-04-06T03:37:59.617Z,3.26
2023-04-06T03:43:02.834Z,3.14
2023-04-06T03:48:08.487Z,3.18
2023-04-06T03:53:13.200Z,3.28
2023-04-06T03:58:15.184Z,3.37
2023-04-06T04:03:17.250Z,3.33
2023-04-06T04:08:19.230Z,3.25
2023-04-06T04:13:21.447Z,3.20
2023-04-06T04:18:25.845Z,3.17
2023-04-06T04:23:27.768Z,3.23
2023-04-06T04:28:29.676Z,3.29
2023-04-06T04:33:32.039Z,3.28
2023-04-06T04:38:36.855Z,3.28
2023-04-06T04:43:39.340Z,3.31
2023-04-06T04:48:41.686Z,3.35
2023-04-06T04:53:44.384Z,3.32
2023-04-06T04:58:55.315Z,3.31
2023-04-06T05:03:58.803Z,3.27
2023-04-06T05:09:01.190Z,3.15
2023-04-06T05:14:07.404Z,2.94
2023-04-06T05:19:09.759Z,2.94
2023-04-06T05:24:17.637Z,2.92
2023-04-06T05:29:22.393Z,3.05
2023-04-06T05:34:24.914Z,3.36
2023-04-06T05:39:27.381Z,3.68
2023-04-06T05:44:29.844Z,3.95
2023-04-06T05:49:43.345Z,4.20
2023-04-06T05:54:51.637Z,4.46
2023-04-06T05:59:53.666Z,4.69
2023-04-06T06:04:57.756Z,4.99
2023-04-06T06:10:01.493Z,5.29
2023-04-06T06:15:08.586Z,5.61
2023-04-06T06:20:14.930Z,5.84
2023-04-06T06:25:18.145Z,6.01
2023-04-06T06:30:23.458Z,6.31
2023-04-06T06:35:26.793Z,6.52
2023-04-06T06:40:29.448Z,6.70
2023-04-06T06:45:32.320Z,7.09
2023-04-06T06:50:34.297Z,7.56
2023-04-06T06:55:36.224Z,7.98
2023-04-06T07:00:38.450Z,8.39
2023-04-06T07:05:50.131Z,8.79
2023-04-06T07:10:59.588Z,9.05
2023-04-06T07:16:01.514Z,9.24
2023-04-06T07:21:04.603Z,9.35
2023-04-06T07:26:06.763Z,9.55
2023-04-06T07:31:08.843Z,9.79
2023-04-06T07:36:11.088Z,10.14
2023-04-06T07:41:13.300Z,10.43
2023-04-06T07:46:15.581Z,10.61
2023-04-06T07:51:18.635Z,10.90
2023-04-06T07:56:22.574Z,11.12
2023-04-06T08:01:24.589Z,11.41
2023-04-06T08:06:27.706Z,11.50
2023-04-06T08:11:29.722Z,11.54
2023-04-06T08:16:31.769Z,11.70
2023-04-06T08:21:35.020Z,11.75
2023-04-06T08:26:36.985Z,11.94
2023-04-06T08:31:39.177Z,12.21
2023-04-06T08:36:41.536Z,12.40
2023-04-06T08:41:44.470Z,12.55
2023-04-06T08:46:46.564Z,12.69
2023-04-06T08:51:48.844Z,12.68
2023-04-06T08:56:51.570Z,12.73
2023-04-06T09:01:55.798Z,12.90
2023-04-06T09:06:57.935Z,12.97
2023-04-06T09:12:06.734Z,13.29
2023-04-06T09:17:08.750Z,13.17
2023-04-06T09:22:10.843Z,13.25
2023-04-06T09:27:13.969Z,13.18
2023-04-06T09:32:18.052Z,13.23
2023-04-06T09:37:20.606Z,13.34
2023-04-06T09:42:26.764Z,13.52
2023-04-06T09:47:29.924Z,13.39
2023-04-06T09:52:52.366Z,13.44
2023-04-06T09:58:04.457Z,13.36
2023-04-06T10:03:18.386Z,13.53
2023-04-06T10:08:24.230Z,13.52
2023-04-06T10:13:26.443Z,13.81
2023-04-06T10:18:28.782Z,13.77
2023-04-06T10:23:38.458Z,13.75
2023-04-06T10:28:42.735Z,13.59
2023-04-06T10:33:57.102Z,13.46
2023-04-06T10:39:07.468Z,13.04
2023-04-06T10:44:09.430Z,13.24
2023-04-06T10:49:13.405Z,13.35
2023-04-06T10:54:17.229Z,12.93
2023-04-06T10:59:23.029Z,13.02
2023-04-06T11:04:26.403Z,13.26
2023-04-06T11:09:30.441Z,13.45
2023-04-06T11:14:32.400Z,13.79
2023-04-06T11:19:35.600Z,13.39
2023-04-06T11:24:37.572Z,13.29
2023-04-06T11:29:39.782Z,13.32
2023-04-06T11:34:42.098Z,13.68
2023-04-06T11:39:52.718Z,13.90
2023-04-06T11:45:01.422Z,13.73
2023-04-06T11:50:14.332Z,13.40
2023-04-06T11:55:18.895Z,13.06
2023-04-06T12:00:22.240Z,13.20
2023-04-06T12:05:25.003Z,13.28
2023-04-06T12:10:26.977Z,13.47
2023-04-06T12:15:29.145Z,13.75
2023-04-06T12:20:32.426Z,13.85
2023-04-06T12:25:35.027Z,14.05
2023-04-06T12:30:37.717Z,14.26
2023-04-06T12:35:40.022Z,14.60
2023-04-06T12:40:42.163Z,14.87
2023-04-06T12:45:45.432Z,14.95
2023-04-06T12:50:59.580Z,15.00
2023-04-06T12:56:03.044Z,14.97
2023-04-06T13:01:08.803Z,15.11
2023-04-06T13:06:12.127Z,15.20
2023-04-06T13:11:14.231Z,15.11
2023-04-06T13:16:17.177Z,14.99
2023-04-06T13:21:20.153Z,14.85
2023-04-06T13:26:22.438Z,14.66
2023-04-06T13:31:24.367Z,14.54
2023-04-06T13:36:27.769Z,14.41
2023-04-06T13:41:29.674Z,14.55
2023-04-06T13:46:31.652Z,14.70
2023-04-06T13:51:33.639Z,14.55
2023-04-06T13:56:35.657Z,14.37
2023-04-06T14:01:38.350Z,14.56
2023-04-06T14:06:40.719Z,14.80
2023-04-06T14:11:42.617Z,15.02
2023-04-06T14:16:45.199Z,15.17
2023-04-06T14:21:47.074Z,15.12
2023-04-06T14:26:49.092Z,14.98
2023-04-06T14:31:50.938Z,14.91
2023-04-06T14:36:52.938Z,14.73
2023-04-06T14:41:54.768Z,14.70
2023-04-06T14:46:56.764Z,14.64
2023-04-06T14:52:00.598Z,14.67
2023-04-06T14:57:02.997Z,14.61
2023-04-06T15:02:05.040Z,14.54
2023-04-06T15:07:06.939Z,14.51
2023-04-06T15:12:08.885Z,14.48
2023-04-06T15:17:10.833Z,14.41
2023-04-06T15:22:13.892Z,14.25
2023-04-06T15:27:15.874Z,14.11
2023-04-06T15:32:17.799Z,13.97
2023-04-06T15:37:19.632Z,13.85
2023-04-06T15:42:21.520Z,13.74
2023-04-06T15:47:23.389Z,13.56
2023-04-06T15:52:25.296Z,13.53
2023-04-06T15:57:27.294Z,13.38
2023-04-06T16:02:29.405Z,13.32
2023-04-06T16:07:33.012Z,13.27
2023-04-06T16:12:34.920Z,13.22
2023-04-06T16:17:36.935Z,13.25
2023-04-06T16:22:38.895Z,13.17
2023-04-06T16:27:40.745Z,13.02
2023-04-06T16:32:43.521Z,12.87
2023-04-06T16:37:46.643Z,12.75
2023-04-06T16:42:48.741Z,12.66
2023-04-06T16:47:50.849Z,12.61
2023-04-06T16:52:52.793Z,12.56
2023-04-06T16:57:55.998Z,12.53
2023-04-06T17:02:58.097Z,12.44
2023-04-06T17:08:00.520Z,12.40
2023-04-06T17:13:02.408Z,12.25
2023-04-06T17:18:04.648Z,12.17
2023-04-06T17:23:06.659Z,12.06
2023-04-06T17:28:08.800Z,11.94
2023-04-06T17:33:10.714Z,11.81
2023-04-06T17:38:12.587Z,11.72
2023-04-06T17:43:14.418Z,11.69
2023-04-06T17:48:16.398Z,11.69
2023-04-06T17:53:20.416Z,11.73
2023-04-06T17:58:22.605Z,11.64
2023-04-06T18:03:24.482Z,11.54
2023-04-06T18:08:26.412Z,11.44
2023-04-06T18:13:28.270Z,11.39
2023-04-06T18:18:30.506Z,11.30
2023-04-06T18:23:34.165Z,11.14
2023-04-06T18:28:36.293Z,11.04
2023-04-06T18:33:38.149Z,10.92
2023-04-06T18:38:44.923Z,10.86
2023-04-06T18:43:46.929Z,10.70
2023-04-06T18:48:48.822Z,10.51
2023-04-06T18:53:50.806Z,10.46
2023-04-06T18:58:52.774Z,10.25
2023-04-06T19:03:56.026Z,10.02
2023-04-06T19:08:59.008Z,9.89
2023-04-06T19:14:01.054Z,9.81
2023-04-06T19:19:02.943Z,9.73
2023-04-06T19:24:05.070Z,9.57
2023-04-06T19:29:06.913Z,9.35
2023-04-06T19:34:08.781Z,9.21
2023-04-06T19:39:10.695Z,9.00
2023-04-06T19:44:12.661Z,8.89
2023-04-06T19:49:14.692Z,8.78
2023-04-06T19:54:16.533Z,8.83
2023-04-06T19:59:18.634Z,8.80
2023-04-06T20:04:20.534Z,8.78
2023-04-06T20:09:22.928Z,8.73
2023-04-06T20:14:25.935Z,8.53
2023-04-06T20:19:27.991Z,8.28
2023-04-06T20:24:31.291Z,8.22
2023-04-06T20:29:33.261Z,8.15
2023-04-06T20:34:35.269Z,7.97
2023-04-06T20:39:37.194Z,7.83
2023-04-06T20:44:39.032Z,7.58
2023-04-06T20:49:40.884Z,7.53
2023-04-06T20:54:42.670Z,7.49
2023-04-06T20:59:45.404Z,7.31
2023-04-06T21:04:47.467Z,7.28
2023-04-06T21:09:49.431Z,7.20
2023-04-06T21:14:51.267Z,7.24
2023-04-06T21:19:53.467Z,7.09
2023-04-06T21:24:55.273Z,7.01
2023-04-06T21:29:57.074Z,6.94
2023-04-06T21:34:59.063Z,6.91
2023-04-06T21:40:02.430Z,6.83
2023-04-06T21:45:04.522Z,6.82
2023-04-06T21:50:06.851Z,6.80
2023-04-06T21:55:09.044Z,6.81
2023-04-06T22:00:12.116Z,6.74
2023-04-06T22:05:19.721Z,6.68
2023-04-06T22:10:21.830Z,6.68
2023-04-06T22:15:23.707Z,6.51
2023-04-06T22:20:25.606Z,6.43
2023-04-06T22:25:27.591Z,6.35
2023-04-06T22:30:29.443Z,6.25
2023-04-06T22:35:31.385Z,6.32
2023-04-06T22:40:33.450Z,6.26
2023-04-06T22:45:35.513Z,6.25
2023-04-06T22:50:37.347Z,6.26
2023-04-06T22:55:41.160Z,6.22
2023-04-06T23:00:43.031Z,6.22
2023-04-06T23:05:45.859Z,6.23
2023-04-06T23:10:47.675Z,6.16
2023-04-06T23:15:49.680Z,6.11
2023-04-06T23:20:51.738Z,6.08
2023-04-06T23:25:53.535Z,6.10
2023-04-06T23:30:55.334Z,6.09
2023-04-06T23:35:57.194Z,6.10
2023-04-06T23:40:59.006Z,6.14
2023-04-06T23:46:01.841Z,6.15
2023-04-06T23:51:03.850Z,6.16
2023-04-06T23:56:06.126Z,6.15
